Stations météo

réclame
Mon MeteoGroup
Meßstetten-Appental, Allemagne (10827): Température de l'air & dewpoint: 09.09.2019 12:00:00 - 15.09.2019 12:00:00 (CEST)Meßstetten-Appental, Allemagne (10827): Température de l'air 5cm & Température de l'air -5cm: 09.09.2019 12:00:00 - 15.09.2019 12:00:00 (CEST)Meßstetten-Appental, Allemagne (10827): Température de l'air -20cm & Température de l'air -100cm: 09.09.2019 12:00:00 - 15.09.2019 12:00:00 (CEST)Meßstetten-Appental, Allemagne (10827): Vitesse du vent & gusts: 09.09.2019 12:00:00 - 15.09.2019 12:00:00 (CEST)Meßstetten-Appental, Allemagne (10827): Direction du vent: 09.09.2019 12:00:00 - 15.09.2019 12:00:00 (CEST)Meßstetten-Appental, Allemagne (10827): visibility: 09.09.2019 12:00:00 - 15.09.2019 12:00:00 (CEST)Meßstetten-Appental, Allemagne (10827): Ensoleillement: 09.09.2019 12:00:00 - 15.09.2019 12:00:00 (CEST)Meßstetten-Appental, Allemagne (10827): Quantités de précipitations: 09.09.2019 12:00:00 - 15.09.2019 12:00:00 (CEST)
Date & Time tt [°C] td [°C] tt 5cm [°C] tt -5cm [°C] tt -20cm [°C] tt -100cm [°C] ff [km/h] ff [knt] fx [km/h] fx [knt] dd vv [km] sd [min] rr [mm]
15.09.2019 12:00:00 21,1 13,6 23,3 21,1 15,0 14,8 6 3 16 9 W 33 60 0,0
15.09.2019 11:00:00 20,0 13,5 21,2 18,4 14,9 14,8 5 3 14 8 WSW 53 60 0,0
15.09.2019 10:00:00 18,4 13,8 17,2 15,5 15,0 14,8 9 5 15 8 SW 25 60 0,0
15.09.2019 09:00:00 17,2 14,2 14,2 12,7 15,2 14,8 4 2 8 4 SSW 20 60 0,0
15.09.2019 08:00:00 10,5 10,5 8,1 11,1 15,5 14,8 0 0 4 2 N 1,9 3 0,0
15.09.2019 07:00:00 8,3 8,2 5,5 11,3 15,7 14,8 3 1 5 3 E 0,2 0 0,0
15.09.2019 06:00:00 9,4 9,3 5,9 11,6 16,0 14,8 3 2 6 4 E 0,3 0 0,0
15.09.2019 05:00:00 9,7 9,5 4,8 12,0 16,3 14,8 5 3 8 5 ENE 0,6 0 0,0
15.09.2019 04:00:00 11,3 10,8 7,3 12,5 16,6 14,8 7 4 11 6 E 7 0 0,0
15.09.2019 03:00:00 11,8 11,4 6,7 12,9 16,9 14,8 8 5 11 6 ESE 10 0 0,0
15.09.2019 02:00:00 10,6 10,1 6,5 13,5 17,1 14,8 7 4 9 5 ESE 6 0 0,0
15.09.2019 01:00:00 11,4 10,9 6,6 14,1 17,4 14,8 5 3 8 5 E 8 0 0,0
15.09.2019 00:00:00 11,1 10,2 6,9 14,8 17,7 14,8 5 3 8 5 ESE 14 0 0,0
14.09.2019 23:00:00 10,6 9,9 6,9 15,7 17,9 14,8 4 2 6 3 ESE 14 0 0,0
14.09.2019 22:00:00 10,6 9,6 7,3 16,8 18,0 14,8 4 2 6 3 E 15 0 0,0
14.09.2019 21:00:00 12,3 10,9 8,2 18,3 18,0 14,8 5 3 9 5 ESE 28 0 0,0
14.09.2019 20:00:00 14,9 12,2 10,3 20,1 17,9 14,8 5 3 11 6 E 35 1 0,0
14.09.2019 19:00:00 18,7 13,8 16,7 21,6 17,7 14,8 9 5 13 7 E 65 51 0,0
14.09.2019 18:00:00 19,6 14,1 19,2 22,7 17,4 14,8 8 4 12 7 E 48 16 0,0
14.09.2019 17:00:00 19,9 14,5 19,9 23,8 17,0 14,8 4 2 16 9 NNE 56 14 0,0
14.09.2019 16:00:00 19,8 13,7 19,1 24,9 16,5 14,8 5 3 16 9 NE 62 41 0,0
14.09.2019 15:00:00 20,7 13,0 22,5 24,2 16,1 14,8 5 3 15 8 E 53 42 0,0
14.09.2019 14:00:00 19,0 12,8 20,3 22,9 15,8 14,8 9 5 16 9 E 60 42 0,0
14.09.2019 13:00:00 18,5 12,7 19,0 21,6 15,5 14,8 11 6 18 10 E 65 36 0,0
14.09.2019 12:00:00 17,6 12,7 19,6 20,2 15,3 14,8 12 6 17 9 ESE 22 60 0,0
14.09.2019 11:00:00 16,4 13,1 17,2 17,8 15,3 14,8 12 7 19 10 E 28 60 0,0
14.09.2019 10:00:00 15,6 13,1 15,8 15,5 15,3 14,8 13 7 21 12 E 26 60 0,0
14.09.2019 09:00:00 14,1 12,0 12,7 13,9 15,5 14,8 11 6 18 10 E 28 36 0,0
14.09.2019 08:00:00 12,9 11,8 10,6 13,2 15,7 14,8 11 6 16 9 E 17 0 0,0
14.09.2019 07:00:00 12,8 11,7 10,5 12,9 15,9 14,8 9 5 17 9 E 18 0 0,0
14.09.2019 06:00:00 12,3 11,4 9,5 12,9 16,1 14,8 10 5 14 8 E 18 0 0,0
14.09.2019 05:00:00 12,4 11,2 9,1 13,2 16,3 14,8 11 6 14 8 E 23 0 0,0
14.09.2019 04:00:00 13,0 11,5 9,7 13,6 16,6 14,8 10 5 16 9 E 25 0 0,0
14.09.2019 03:00:00 13,0 11,6 9,5 14,1 16,8 14,8 10 5 15 8 E 29 0 0,0
14.09.2019 02:00:00 11,8 11,0 8,0 14,2 17,1 14,8 6 3 9 5 E 12 0 0,0
14.09.2019 01:00:00 11,7 10,9 7,4 14,7 17,4 14,8 6 3 9 5 E 14 0 0,0
14.09.2019 00:00:00 10,9 10,0 7,6 15,6 17,6 14,8 4 2 11 6 ESE 13 0 0,0
13.09.2019 23:00:00 13,8 12,0 10,4 16,4 17,8 14,8 5 3 10 6 ENE 27 0 0,0
13.09.2019 22:00:00 14,1 12,4 10,9 17,5 17,9 14,8 3 1 10 5 E 31 0 0,0
13.09.2019 21:00:00 15,7 12,7 12,5 18,8 17,9 14,8 4 2 13 7 NE 42 0 0,0
13.09.2019 20:00:00 16,8 12,6 12,5 20,7 17,7 14,8 2 1 7 4 ENE 66 10 0,0
13.09.2019 19:00:00 19,3 12,6 17,5 22,7 17,4 14,8 3 2 13 7 NW 70 60 0,0
13.09.2019 18:00:00 20,7 12,9 20,6 24,5 16,9 14,8 6 3 16 9 NNW 62 60 0,0
13.09.2019 17:00:00 21,2 12,4 22,8 25,6 16,4 14,8 5 3 17 9 NE 70 60 0,0
13.09.2019 16:00:00 20,6 11,8 23,0 25,9 15,8 14,8 8 5 25 13 NNW 46 60 0,0
13.09.2019 15:00:00 20,8 11,9 23,8 25,4 15,2 14,8 8 4 20 11 NNW 59 60 0,0
13.09.2019 14:00:00 20,6 11,3 22,8 24,3 14,7 14,8 9 5 23 12 NW 30 60 0,0
13.09.2019 13:00:00 20,7 12,0 23,7 22,8 14,3 14,8 6 3 15 8 NNW 35 60 0,0
13.09.2019 12:00:00 19,4 9,9 22,2 20,5 14,0 14,8 8 4 15 8 NW 37 60 0,0
13.09.2019 11:00:00 19,0 10,6 19,7 17,7 13,9 14,9 6 3 13 7 SW 58 60 0,0
13.09.2019 10:00:00 18,1 10,4 17,7 14,7 14,0 14,9 3 2 6 3 SSE 50 60 0,0
13.09.2019 09:00:00 16,5 12,6 12,8 11,7 14,2 14,9 0 0 3 2 N 59 60 0,0
13.09.2019 08:00:00 9,5 8,9 7,6 9,9 14,5 14,8 2 1 6 3 ENE 21 6 0,0
13.09.2019 07:00:00 7,6 7,4 3,3 10,0 14,8 14,9 4 2 5 3 E 18 0 0,0
13.09.2019 06:00:00 7,3 7,0 3,6 10,4 15,0 14,9 3 2 4 2 E 18 0 0,0
13.09.2019 05:00:00 7,6 7,2 4,2 10,8 15,3 14,9 2 1 4 2 E 35 0 0,0
13.09.2019 04:00:00 7,0 6,5 3,4 11,3 15,6 14,9 2 1 3 2 E 32 0 0,0
13.09.2019 03:00:00 7,8 7,3 4,4 11,9 15,9 14,9 0 0 5 3 N 31 0 0,0
13.09.2019 02:00:00 8,9 8,2 4,9 12,6 16,2 14,9 2 1 6 4 ENE 38 0 0,0
13.09.2019 01:00:00 8,6 8,2 5,1 13,2 16,5 14,9 2 1 4 2 E 39 0 0,0
13.09.2019 00:00:00 8,5 7,7 5,5 14,1 16,8 14,9 0 0 5 3 N 48 0 0,0
12.09.2019 23:00:00 9,9 8,3 5,5 15,0 17,0 14,9 4 2 5 3 E 66 0 0,0
12.09.2019 22:00:00 9,7 8,2 6,4 16,2 17,1 14,9 0 0 2 1 N 68 0 0,0
12.09.2019 21:00:00 10,9 8,6 7,3 17,7 17,1 14,9 0 0 2 1 N 70 0 0,0
12.09.2019 20:00:00 13,1 9,2 9,3 19,8 16,9 14,9 2 1 12 6 NW 70 12 0,0
12.09.2019 19:00:00 19,4 10,0 18,4 21,9 16,6 14,9 7 4 13 7 NNW 70 60 0,0
12.09.2019 18:00:00 20,3 9,7 19,6 23,8 16,1 15,0 11 6 16 9 NW 70 60 0,0
12.09.2019 17:00:00 20,5 9,7 21,0 24,9 15,6 15,0 8 4 19 11 WNW 61 60 0,0
12.09.2019 16:00:00 20,5 9,1 22,4 25,1 15,0 15,0 8 4 18 10 NW 52 60 0,0
12.09.2019 15:00:00 19,9 8,9 21,5 24,6 14,4 15,0 10 5 17 9 SW 37 60 0,0
12.09.2019 14:00:00 18,8 6,9 22,0 23,1 13,9 15,0 8 4 19 10 WNW 70 60 0,0
12.09.2019 13:00:00 18,4 6,6 20,3 21,8 13,5 15,0 6 3 16 8 W 48 60 0,0
12.09.2019 12:00:00 17,3 6,0 19,4 19,0 13,3 15,0 5 3 20 11 WNW 47 45 0,0
12.09.2019 11:00:00 16,6 7,7 18,2 16,4 13,3 15,0 5 3 11 6 WNW 70 60 0,0
12.09.2019 10:00:00 15,1 7,8 15,1 13,4 13,3 15,0 5 3 8 4 S 56 45 0,0
12.09.2019 09:00:00 12,3 6,8 10,4 11,2 13,5 15,0 6 3 8 4 SSW 70 32 0,0
12.09.2019 08:00:00 8,8 6,4 5,2 10,2 13,6 15,0 4 2 8 4 SSW 59 0 0,0
12.09.2019 07:00:00 8,7 5,9 4,6 11,0 13,7 15,0 3 2 8 4 E 59 0 0,0
12.09.2019 06:00:00 8,7 7,1 6,3 11,6 13,8 15,0 0 0 3 2 N 43 0 0,0
12.09.2019 05:00:00 8,7 7,0 6,9 11,9 13,9 15,0 0 0 3 1 N 48 0 0,0
12.09.2019 04:00:00 11,1 8,1 8,8 12,2 14,0 15,1 0 0 5 3 N 54 0 0,0
12.09.2019 03:00:00 10,8 8,8 9,0 12,2 14,1 15,1 4 2 6 3 NW 44 0 0,0
12.09.2019 02:00:00 10,4 9,2 8,8 12,2 14,3 15,1 0 0 5 3 N 34 0 0,0
12.09.2019 01:00:00 10,2 8,0 7,9 12,3 14,4 15,1 3 2 10 5 SSW 43 0 0,0
12.09.2019 00:00:00 8,2 6,9 6,2 12,6 14,5 15,1 2 1 4 2 ENE 39 0 0,0
11.09.2019 23:00:00 10,3 9,0 8,5 13,2 14,6 15,1 0 0 3 1 N 37 0 0,0
11.09.2019 22:00:00 10,7 9,3 8,7 13,7 14,7 15,1 0 0 3 2 N 43 0 0,0
11.09.2019 21:00:00 11,0 8,3 8,7 14,2 14,7 15,1 2 1 6 3 W 37 0 0,0
11.09.2019 20:00:00 11,9 7,7 9,1 14,9 14,6 15,1 4 2 17 9 NNW 47 0 0,1
11.09.2019 19:00:00 13,4 6,5 11,3 15,9 14,4 15,1 10 6 21 11 WNW 70 0 0,0
11.09.2019 18:00:00 14,3 8,1 12,4 17,3 14,2 15,2 10 6 28 15 WNW 61 0 0,0
11.09.2019 17:00:00 15,8 8,2 14,5 18,9 13,8 15,2 13 7 23 12 WNW 70 24 0,0
11.09.2019 16:00:00 17,5 8,4 18,6 19,2 13,4 15,2 11 6 18 10 W 41 29 0,0
11.09.2019 15:00:00 16,1 8,6 16,6 18,5 13,1 15,2 6 3 15 8 NW 47 16 0,0
11.09.2019 14:00:00 15,5 7,9 15,5 17,9 12,7 15,2 4 2 11 6 SW 44 19 0,0
11.09.2019 13:00:00 14,8 8,6 15,6 17,2 12,4 15,2 8 4 15 8 E 31 16 0,0
11.09.2019 12:00:00 14,3 8,8 14,8 16,9 12,1 15,2 2 1 9 5 WNW 32 21 0,0
11.09.2019 11:00:00 14,7 7,9 - 17,1 11,9 15,2 3 2 12 6 SE 40 60 0,0
11.09.2019 10:00:00 13,1 8,1 - 12,9 12,0 15,2 7 4 15 8 E 28 60 0,0
11.09.2019 09:00:00 12,3 7,8 - 9,4 12,1 15,2 3 1 5 3 ESE 17 60 0,0
11.09.2019 08:00:00 6,0 4,7 - 6,6 12,4 15,2 0 0 4 2 N 7 5 0,0
11.09.2019 07:00:00 5,5 4,5 - 6,6 12,6 15,3 3 2 9 5 NW 5 0 0,0
11.09.2019 06:00:00 7,0 6,1 - 6,8 12,9 15,3 6 3 8 5 E 9 0 0,0
11.09.2019 05:00:00 7,3 6,2 - 7,2 13,1 15,3 5 3 11 6 E 7 0 0,0
11.09.2019 04:00:00 7,2 6,0 - 7,6 13,4 15,3 6 3 9 5 E 10 0 0,0
11.09.2019 03:00:00 7,3 6,0 - 8,0 13,7 15,3 7 4 13 7 E 10 0 0,0
11.09.2019 02:00:00 6,0 5,1 - 8,3 13,9 15,3 6 3 8 4 E 10 0 0,0
11.09.2019 01:00:00 6,1 4,8 - 9,0 14,2 15,3 0 0 12 7 N 14 0 0,0
11.09.2019 00:00:00 7,2 5,4 - 9,5 14,5 15,3 6 4 13 7 E 19 0 0,0
10.09.2019 23:00:00 8,6 6,3 - 10,3 14,7 15,3 7 4 11 6 E 28 0 0,0
10.09.2019 22:00:00 8,9 6,3 - 11,2 14,8 15,4 5 3 14 8 ENE 29 0 0,0
10.09.2019 21:00:00 10,2 7,0 - 12,6 14,9 15,4 7 4 13 7 ENE 40 0 0,0
10.09.2019 20:00:00 12,0 8,0 - 14,3 14,8 15,4 5 3 11 6 NE 46 11 0,0
10.09.2019 19:00:00 13,8 8,5 - 16,6 14,7 15,4 3 1 18 10 N 47 60 0,0
10.09.2019 18:00:00 15,1 9,0 - 18,2 14,3 15,4 6 3 16 9 NNW 41 48 0,0
10.09.2019 17:00:00 15,2 8,6 - 20,1 13,9 15,4 10 5 18 10 NNW 34 58 0,0
10.09.2019 16:00:00 16,0 6,1 - 21,2 13,4 15,4 6 3 14 7 N 47 59 0,0
10.09.2019 15:00:00 15,3 4,8 - 21,4 12,8 15,5 7 4 14 7 SE 35 60 0,0
10.09.2019 14:00:00 14,8 6,4 - 21,5 12,3 15,5 7 4 13 7 E 46 60 0,0
10.09.2019 13:00:00 14,4 5,4 - 20,1 11,9 15,5 8 4 17 9 E 42 60 0,0
10.09.2019 12:00:00 13,2 6,5 - 17,3 11,6 15,5 13 7 21 12 E 30 60 0,0
10.09.2019 11:00:00 11,6 6,1 - 14,5 11,5 15,5 16 8 25 13 E 27 60 0,0
10.09.2019 10:00:00 10,2 5,7 - 11,5 11,5 15,5 14 8 22 12 ESE 27 54 0,0
10.09.2019 09:00:00 8,5 6,0 - 8,4 11,6 15,5 11 6 18 10 E 31 0 0,0
10.09.2019 08:00:00 7,0 5,8 - 7,4 11,8 15,5 7 4 11 6 E 28 0 0,0
10.09.2019 07:00:00 6,3 5,3 - 6,9 12,0 15,5 6 4 8 5 ESE 27 0 0,0
10.09.2019 06:00:00 5,6 4,8 - 6,6 12,2 15,5 6 3 7 4 ESE 22 0 0,0
10.09.2019 05:00:00 5,4 4,5 - 6,8 12,4 15,5 6 4 8 4 E 20 0 0,0
10.09.2019 04:00:00 6,0 4,8 - 7,4 12,6 15,6 6 3 8 5 ENE 20 0 0,0
10.09.2019 03:00:00 5,1 4,5 - 7,4 12,8 15,6 6 3 8 4 ESE 21 0 0,0
10.09.2019 02:00:00 5,5 4,8 - 8,2 13,0 15,6 7 4 8 4 E 24 0 0,0
10.09.2019 01:00:00 6,4 5,3 - 8,6 13,2 15,6 6 3 8 4 ESE 38 0 0,0
10.09.2019 00:00:00 5,8 4,6 - 8,9 13,4 15,6 6 3 8 4 E 35 0 0,0
09.09.2019 23:00:00 7,0 6,1 - 10,0 13,6 15,6 0 0 5 3 N 28 0 0,0
09.09.2019 22:00:00 6,5 5,5 - 10,1 13,7 15,6 0 0 7 4 N 34 0 0,0
09.09.2019 21:00:00 7,0 6,0 - 10,8 13,7 15,6 5 3 7 4 E 31 0 0,0
09.09.2019 20:00:00 8,1 6,3 - 12,4 13,7 15,6 2 1 4 2 ENE 40 1 0,0
09.09.2019 19:00:00 11,1 5,2 - 14,5 13,5 15,6 4 2 10 5 W 61 54 0,0
09.09.2019 18:00:00 12,1 4,4 - 16,0 13,3 15,7 6 3 12 6 WNW 67 50 0,0
09.09.2019 17:00:00 10,9 4,5 - 15,5 13,0 15,7 5 3 10 5 WSW 53 6 0,0
09.09.2019 16:00:00 10,7 4,6 - 15,2 12,8 15,7 6 4 16 9 WNW 53 0 0,0
09.09.2019 15:00:00 10,5 5,7 - 15,8 12,5 15,7 9 5 20 11 WNW 46 2 0,0
09.09.2019 14:00:00 10,2 7,1 - 15,1 12,3 15,7 11 6 19 11 W 27 5 0,0
09.09.2019 13:00:00 10,0 6,1 - 15,7 12,2 15,7 14 7 22 12 W 44 25 0,0
09.09.2019 12:00:00 8,2 6,4 - 10,9 12,2 15,7 12 7 23 13 W 23 0 0,0

tt = Température de l'air
td = dewpoint
tt 5cm = Température de l'air 5cm
tt -5cm = Température de l'air -5cm
tt -20cm = Température de l'air -20cm
tt -100cm = Température de l'air -100cm
ff = Vitesse du vent
fx = gusts
dd = Direction du vent
vv = visibility
sd = Ensoleillement
rr = Quantités de précipitations

stations d'obs. à proximité